New Horizon — WKWB — position and weather

sailwx.info

Track history (hours):
 
Tides and Currents Weather Stations Pressure Air Temp Water Temp Dewpoint Dewpoint Depression Visibility Wind Speed Wind Dir Waves Ship Positions

Oceanographic research ship New Horizon (USA)

Detailed information on ship capabilities available from University of Delaware's Ocean Information Center.

Owner: Bold Horizon, LLC., Annapolis, MD. More information available from US FCC via Universal Licensing System and Coast Guard Vessel Documentation Center.

Last reported at 2019-Oct-14 11:01 UTC. Time now 2019-Oct-14 11:20 UTC.
Position N 37°37' W 122°37'.

Type: Other ship. MMSI: 303273000.

Date/timePositionNaut miles runAvg speedWind from/ knotsBaromVisibWave heightAir tempDewpointWater temp
2019-Oct-14 11:01N 37°37' W 122°37'1 2.7
2019-Oct-14 10:30N 37°36' W 122°36'2 4.3
2019-Oct-14 10:00N 37°38' W 122°36'2 3.9
2019-Oct-14 09:28N 37°40' W 122°36'2 4.2
2019-Oct-14 09:00N 37°42' W 122°37'2 3.0
2019-Oct-14 08:30N 37°44' W 122°38'2 4.0
2019-Oct-14 07:58N 37°43' W 122°40'2 3.5
2019-Oct-14 07:30N 37°42' W 122°41'2 4.1
2019-Oct-14 07:01N 37°40' W 122°40'2 3.9
2019-Oct-14 06:30N 37°38' W 122°40'2 3.9
2019-Oct-14 05:59N 37°36' W 122°40'1 2.9
2019-Oct-14 05:29N 37°37' W 122°39'2 3.9
2019-Oct-14 05:00N 37°39' W 122°39'2 4.0
2019-Oct-14 04:30N 37°41' W 122°39'2 4.1
2019-Oct-14 03:58N 37°43' W 122°39'2 4.2
2019-Oct-14 03:31N 37°45' W 122°40'2 3.9
2019-Oct-14 03:01N 37°47' W 122°38'1 2.9
2019-Oct-14 02:31N 37°48' W 122°38'2 3.8
2019-Oct-14 02:00N 37°49' W 122°40'2 4.2
2019-Oct-14 01:30N 37°51' W 122°40'1 2.1
2019-Oct-14 01:00N 37°51' W 122°40'2 4.1
2019-Oct-14 00:31N 37°49' W 122°38'2 3.7
2019-Oct-14 00:00N 37°50' W 122°36'1 1.2
2019-Oct-13 23:30N 37°51' W 122°36'2 4.0
2019-Oct-13 23:01N 37°49' W 122°38'1 2.4
2019-Oct-13 22:30N 37°49' W 122°37'2 4.3
2019-Oct-13 22:00N 37°50' W 122°34'2 3.0
2019-Oct-13 21:27N 37°51' W 122°36'2 4.3
2019-Oct-13 21:00N 37°50' W 122°38'2 3.4
2019-Oct-13 20:31N 37°49' W 122°37'1 2.4
2019-Oct-13 20:01N 37°49' W 122°36'2 4.2
2019-Oct-13 19:30N 37°51' W 122°38'2 4.3
2019-Oct-13 19:01N 37°52' W 122°39'1 1.4
2019-Oct-13 18:29N 37°52' W 122°40'2 4.1
2019-Oct-13 18:00N 37°51' W 122°39'2 4.0
2019-Oct-13 17:30N 37°49' W 122°37'2 3.2
2019-Oct-13 17:01N 37°49' W 122°35'1 1.6
2019-Oct-13 16:31N 37°50' W 122°35'2 4.0
2019-Oct-13 16:01N 37°48' W 122°36'2 4.2
2019-Oct-13 15:31N 37°47' W 122°38'2 3.9
2019-Oct-13 15:01N 37°46' W 122°40'2 4.8
2019-Oct-13 14:31N 37°44' W 122°38'0 0.0
2019-Oct-13 14:01N 37°44' W 122°38'0 0.1
2019-Oct-13 13:30N 37°44' W 122°38'0 0.0
2019-Oct-13 13:00N 37°44' W 122°38'0 0.0
2019-Oct-13 12:30N 37°44' W 122°38'3 7.0
2019-Oct-13 12:00N 37°43' W 122°34'1 1.6
2019-Oct-13 11:31N 37°43' W 122°33'0 0.5
2019-Oct-13 11:00N 37°43' W 122°33'1 2.5
2019-Oct-13 10:28N 37°43' W 122°35'1 2.1
2019-Oct-13 10:00N 37°43' W 122°36'1 2.3
2019-Oct-13 09:30N 37°43' W 122°38'2 4.4
2019-Oct-13 09:00N 37°42' W 122°41'0 0.1
2019-Oct-13 08:30N 37°42' W 122°41'0 0.0
2019-Oct-13 08:01N 37°42' W 122°41'1 2.6
2019-Oct-13 07:29N 37°42' W 122°42'2 3.2
2019-Oct-13 07:00N 37°42' W 122°40'2 4.1
2019-Oct-13 06:30N 37°43' W 122°38'2 4.0
2019-Oct-13 06:01N 37°43' W 122°35'2 3.1
2019-Oct-13 05:31N 37°44' W 122°35'2 3.7
2019-Oct-13 05:01N 37°44' W 122°37'2 4.1
2019-Oct-13 04:29N 37°44' W 122°40'2 4.0
2019-Oct-13 04:01N 37°44' W 122°42'2 3.9
2019-Oct-13 03:31N 37°46' W 122°41'2 3.8
2019-Oct-13 03:00N 37°47' W 122°39'2 3.6
2019-Oct-13 02:31N 37°49' W 122°37'2 3.8
2019-Oct-13 02:00N 37°50' W 122°39'2 3.7
2019-Oct-13 01:28N 37°52' W 122°40'2 4.2
2019-Oct-13 01:01N 37°53' W 122°38'2 3.4
2019-Oct-13 00:30N 37°52' W 122°40'1 2.8
2019-Oct-13 00:00N 37°51' W 122°40'2 3.9
2019-Oct-12 23:31N 37°52' W 122°38'1 1.7
2019-Oct-12 23:00N 37°53' W 122°38'1 2.8
2019-Oct-12 22:30N 37°53' W 122°40'2 3.3
2019-Oct-12 22:01N 37°51' W 122°40'1 3.0
2019-Oct-12 21:31N 37°51' W 122°38'2 3.7
2019-Oct-12 20:59N 37°52' W 122°36'2 3.9
2019-Oct-12 20:31N 37°51' W 122°38'2 4.2
2019-Oct-12 20:00N 37°50' W 122°40'1 1.4
2019-Oct-12 19:31N 37°49' W 122°40'0 0.3
2019-Oct-12 19:00N 37°49' W 122°40'1 2.8
2019-Oct-12 18:31N 37°48' W 122°39'0 0.2
2019-Oct-12 18:01N 37°48' W 122°39'2 3.4
2019-Oct-12 17:31N 37°47' W 122°40'0 0.1
2019-Oct-12 17:00N 37°47' W 122°40'0 0.0
2019-Oct-12 16:30N 37°47' W 122°40'0 0.0
2019-Oct-12 16:01N 37°47' W 122°40'2 4.0
2019-Oct-12 15:31N 37°47' W 122°43'1 2.5
2019-Oct-12 15:00N 37°46' W 122°42'2 4.2
2019-Oct-12 14:30N 37°45' W 122°40'1 2.2
2019-Oct-12 14:01N 37°46' W 122°40'2 3.9
2019-Oct-12 13:31N 37°47' W 122°41'1 2.6
2019-Oct-12 13:01N 37°48' W 122°43'2 3.9
2019-Oct-12 12:31N 37°46' W 122°41'2 3.1
2019-Oct-12 12:01N 37°46' W 122°39'1 2.9
2019-Oct-12 11:31N 37°47' W 122°39'2 4.0
2019-Oct-12 11:00N 37°48' W 122°41'1 1.8
2019-Oct-12 10:30N 37°49' W 122°42'2 4.1
2019-Oct-12 10:00N 37°47' W 122°40'2 4.2
2019-Oct-12 09:30N 37°46' W 122°38'1 1.5
2019-Oct-12 09:01N 37°46' W 122°38'1 3.0
2019-Oct-12 08:31N 37°48' W 122°38'2 4.0
2019-Oct-12 08:00N 37°49' W 122°40'1 2.4
2019-Oct-12 07:30N 37°50' W 122°41'2 4.2
2019-Oct-12 07:01N 37°48' W 122°39'2 4.1
2019-Oct-12 06:31N 37°47' W 122°38'2 3.5
2019-Oct-12 06:01N 37°48' W 122°38'2 3.9
2019-Oct-12 05:30N 37°50' W 122°40'2 4.1
2019-Oct-12 05:01N 37°48' W 122°42'2 3.8
2019-Oct-12 04:30N 37°47' W 122°43'2 3.8
2019-Oct-12 04:00N 37°48' W 122°41'2 3.7
2019-Oct-12 03:31N 37°49' W 122°39'1 1.2
2019-Oct-12 03:01N 37°49' W 122°39'2 4.1
2019-Oct-12 02:31N 37°48' W 122°41'2 3.5
2019-Oct-12 02:01N 37°46' W 122°42'1 2.7
2019-Oct-12 01:30N 37°47' W 122°41'2 4.0
2019-Oct-12 01:00N 37°48' W 122°39'2 3.8
2019-Oct-12 00:30N 37°49' W 122°37'1 2.5
2019-Oct-12 00:00N 37°51' W 122°37'2 4.0
2019-Oct-11 23:31N 37°52' W 122°39'1 2.4
2019-Oct-11 22:56N 37°54' W 122°39'1 2.9
2019-Oct-11 22:31N 37°53' W 122°38'2 3.6
2019-Oct-11 22:01N 37°51' W 122°37'2 3.8
2019-Oct-11 21:31N 37°50' W 122°35'1 1.9
2019-Oct-11 21:01N 37°49' W 122°34'3 7.0
2019-Oct-11 20:31N 37°49' W 122°30'5 9.3
2019-Oct-11 20:01N 37°50' W 122°24'5 9.9
2019-Oct-11 19:30N 37°48' W 122°19'1 2.1
2019-Oct-11 19:00N 37°47' W 122°17'0 0.0
2019-Oct-11 18:31N 37°47' W 122°17'0 0.0
2019-Oct-11 18:01N 37°47' W 122°17'0 0.0
2019-Oct-11 17:30N 37°47' W 122°17'0 0.0
2019-Oct-11 17:01N 37°47' W 122°17'0 0.0
2019-Oct-11 16:31N 37°47' W 122°17'0 0.0
2019-Oct-11 16:01N 37°47' W 122°17'0 0.1
2019-Oct-11 15:31N 37°47' W 122°17'0 0.1
2019-Oct-11 15:00N 37°47' W 122°17'0 0.0
2019-Oct-11 14:30N 37°47' W 122°17'0 0.0
2019-Oct-11 14:00N 37°47' W 122°17'0 0.1
2019-Oct-11 13:29N 37°47' W 122°17'0 0.1
2019-Oct-11 12:59N 37°47' W 122°17'0 0.0
2019-Oct-11 12:29N 37°47' W 122°17'0 0.0
2019-Oct-11 11:59N 37°47' W 122°17'0 0.0
2019-Oct-11 11:29N 37°47' W 122°17'0 0.0
2019-Oct-11 10:59N 37°47' W 122°17'0 0.0
2019-Oct-11 10:29N 37°47' W 122°17'0 0.0
2019-Oct-11 09:59N 37°47' W 122°17'0 0.0
2019-Oct-11 09:29N 37°47' W 122°17'0 0.0
2019-Oct-11 08:59N 37°47' W 122°17'0 0.0
2019-Oct-11 08:29N 37°47' W 122°17'0 0.0
2019-Oct-11 07:59N 37°47' W 122°17'0 0.0
2019-Oct-11 07:29N 37°47' W 122°17'0 0.0
2019-Oct-11 06:59N 37°47' W 122°17'0 0.0
2019-Oct-11 06:29N 37°47' W 122°17'0 0.0
2019-Oct-11 05:59N 37°47' W 122°17'0 0.0
2019-Oct-11 05:29N 37°47' W 122°17'0 0.0
2019-Oct-11 04:58N 37°47' W 122°17'0 0.0
2019-Oct-11 04:28N 37°47' W 122°17'0 0.0
2019-Oct-11 03:58N 37°47' W 122°17'0 0.0
2019-Oct-11 03:28N 37°47' W 122°17'0 0.0
2019-Oct-11 02:58N 37°47' W 122°17'0 0.0
2019-Oct-11 02:28N 37°47' W 122°17'0 0.0
2019-Oct-11 01:58N 37°47' W 122°17'0 0.0
2019-Oct-11 01:28N 37°47' W 122°17'0 0.0
2019-Oct-11 00:58N 37°47' W 122°17'0 0.0
2019-Oct-11 00:28N 37°47' W 122°17'0 0.1
2019-Oct-10 23:58N 37°47' W 122°17'0 0.1
2019-Oct-10 23:28N 37°47' W 122°17'0 0.0
2019-Oct-10 22:58N 37°47' W 122°17'0 0.0
2019-Oct-10 22:28N 37°47' W 122°17'0 0.0
2019-Oct-10 21:58N 37°47' W 122°17'0 0.0
2019-Oct-10 21:28N 37°47' W 122°17'0 0.0
2019-Oct-10 20:58N 37°47' W 122°17'0 0.0
2019-Oct-10 20:28N 37°47' W 122°17'0 0.0
2019-Oct-10 19:58N 37°47' W 122°17'0 0.0
2019-Oct-10 19:28N 37°47' W 122°17'0 0.0
2019-Oct-10 18:58N 37°47' W 122°17'0 0.0
2019-Oct-10 18:28N 37°47' W 122°17'0 0.0
2019-Oct-10 17:58N 37°47' W 122°17'0 0.0
2019-Oct-10 17:28N 37°47' W 122°17'0 0.0
2019-Oct-10 16:58N 37°47' W 122°17'0 0.0
2019-Oct-10 16:30N 37°47' W 122°17'0 0.0
2019-Oct-10 16:00N 37°47' W 122°17'0 0.0
2019-Oct-10 15:30N 37°47' W 122°17'0 0.0
2019-Oct-10 15:00N 37°47' W 122°17'0 0.0
2019-Oct-10 14:30N 37°47' W 122°17'0 0.0
2019-Oct-10 14:00N 37°47' W 122°17'0 0.0
2019-Oct-10 13:30N 37°47' W 122°17'0 0.0
2019-Oct-10 13:00N 37°47' W 122°17'0 0.0
2019-Oct-10 12:30N 37°47' W 122°17'0 0.0
2019-Oct-10 12:00N 37°47' W 122°17'0 0.0
2019-Oct-10 11:30N 37°47' W 122°17'0 0.0
2019-Oct-10 11:00N 37°47' W 122°17'0 0.0
2019-Oct-10 10:30N 37°47' W 122°17'0 0.0
2019-Oct-10 10:00N 37°47' W 122°17'0 0.0
2019-Oct-10 09:30N 37°47' W 122°17'0 0.0
2019-Oct-10 09:00N 37°47' W 122°17'0 0.0
2019-Oct-10 08:30N 37°47' W 122°17'0 0.0
2019-Oct-10 08:00N 37°47' W 122°17'0 0.0
2019-Oct-10 07:30N 37°47' W 122°17'0 0.0
2019-Oct-10 07:00N 37°47' W 122°17'0 0.0
2019-Oct-10 06:30N 37°47' W 122°17'0 0.0
2019-Oct-10 06:00N 37°47' W 122°17'0 0.1
2019-Oct-10 05:30N 37°47' W 122°17'0 0.1
2019-Oct-10 05:00N 37°47' W 122°17'0 0.0
2019-Oct-10 04:30N 37°47' W 122°17'0 0.0
2019-Oct-10 04:00N 37°47' W 122°17'0 0.0
2019-Oct-10 03:30N 37°47' W 122°17'0 0.0
2019-Oct-10 03:00N 37°47' W 122°17'0 0.0
2019-Oct-10 02:30N 37°47' W 122°17'0 0.0
2019-Oct-10 02:00N 37°47' W 122°17'0 0.0
2019-Oct-10 01:30N 37°47' W 122°17'0 0.0
2019-Oct-10 01:00N 37°47' W 122°17'0 0.0
2019-Oct-10 00:30N 37°47' W 122°17'0 0.0
2019-Oct-10 00:00N 37°47' W 122°17'0 0.0
2019-Oct-09 23:31N 37°47' W 122°17'0 0.0
2019-Oct-09 23:00N 37°47' W 122°17'0 0.0
2019-Oct-09 22:30N 37°47' W 122°17'0 0.0
2019-Oct-09 22:00N 37°47' W 122°17'0 0.0
2019-Oct-09 21:30N 37°47' W 122°17'0 0.0
2019-Oct-09 20:59N 37°47' W 122°17'0 0.0
2019-Oct-09 20:17N 37°47' W 122°17'0 0.0
2019-Oct-09 20:00N 37°47' W 122°17'0 0.0
2019-Oct-09 19:30N 37°47' W 122°17'0 0.0
2019-Oct-09 19:00N 37°47' W 122°17'2 3.2
2019-Oct-09 18:30N 37°48' W 122°19'4 8.8
2019-Oct-09 18:00N 37°49' W 122°25'510.3
2019-Oct-09 17:30N 37°48' W 122°31'510.8
2019-Oct-09 17:00N 37°46' W 122°38'510.1
2019-Oct-09 16:30N 37°47' W 122°44'510.0
2019-Oct-09 16:00N 37°48' W 122°50'510.0
2019-Oct-09 15:30N 37°50' W 122°56'510.3
2019-Oct-09 15:00N 37°53' W 123°01'510.1
2019-Oct-09 14:30N 37°55' W 123°07'510.1
2019-Oct-09 14:00N 37°58' W 123°12'510.5
2019-Oct-09 13:30N 38°02' W 123°16'510.7
2019-Oct-09 13:00N 38°06' W 123°21'510.7
2019-Oct-09 12:30N 38°11' W 123°24'510.7
2019-Oct-09 12:00N 38°16' W 123°27'510.6
2019-Oct-09 11:30N 38°21' W 123°30'510.2
2019-Oct-09 11:00N 38°25' W 123°33'510.0
2019-Oct-09 10:30N 38°30' W 123°35'6 9.8
2019-Oct-09 09:52N 38°35' W 123°39'9 9.9
2019-Oct-09 09:00N 38°43' W 123°44'  
Track history (hours):
 
Tides and Currents Weather Stations Pressure Air Temp Water Temp Dewpoint Dewpoint Depression Visibility Wind Speed Wind Dir Waves Ship Positions

Oceanographic research ship New Horizon (USA)

Detailed information on ship capabilities available from University of Delaware's Ocean Information Center.

Owner: Bold Horizon, LLC., Annapolis, MD. More information available from US FCC via Universal Licensing System and Coast Guard Vessel Documentation Center.

Last reported at 2019-Oct-14 11:01 UTC. Time now 2019-Oct-14 11:20 UTC.
Position N 37°37' W 122°37'.

Type: Other ship. MMSI: 303273000.

Date/timePositionNaut miles runAvg speedWind from/ knotsBaromVisibWave heightAir tempDewpointWater temp
2019-Oct-14 11:01N 37°37' W 122°37'1 2.7
2019-Oct-14 10:30N 37°36' W 122°36'2 4.3
2019-Oct-14 10:00N 37°38' W 122°36'2 3.9
2019-Oct-14 09:28N 37°40' W 122°36'2 4.2
2019-Oct-14 09:00N 37°42' W 122°37'2 3.0
2019-Oct-14 08:30N 37°44' W 122°38'2 4.0
2019-Oct-14 07:58N 37°43' W 122°40'2 3.5
2019-Oct-14 07:30N 37°42' W 122°41'2 4.1
2019-Oct-14 07:01N 37°40' W 122°40'2 3.9
2019-Oct-14 06:30N 37°38' W 122°40'2 3.9
2019-Oct-14 05:59N 37°36' W 122°40'1 2.9
2019-Oct-14 05:29N 37°37' W 122°39'2 3.9
2019-Oct-14 05:00N 37°39' W 122°39'2 4.0
2019-Oct-14 04:30N 37°41' W 122°39'2 4.1
2019-Oct-14 03:58N 37°43' W 122°39'2 4.2
2019-Oct-14 03:31N 37°45' W 122°40'2 3.9
2019-Oct-14 03:01N 37°47' W 122°38'1 2.9
2019-Oct-14 02:31N 37°48' W 122°38'2 3.8
2019-Oct-14 02:00N 37°49' W 122°40'2 4.2
2019-Oct-14 01:30N 37°51' W 122°40'1 2.1
2019-Oct-14 01:00N 37°51' W 122°40'2 4.1
2019-Oct-14 00:31N 37°49' W 122°38'2 3.7
2019-Oct-14 00:00N 37°50' W 122°36'1 1.2
2019-Oct-13 23:30N 37°51' W 122°36'2 4.0
2019-Oct-13 23:01N 37°49' W 122°38'1 2.4
2019-Oct-13 22:30N 37°49' W 122°37'2 4.3
2019-Oct-13 22:00N 37°50' W 122°34'2 3.0
2019-Oct-13 21:27N 37°51' W 122°36'2 4.3
2019-Oct-13 21:00N 37°50' W 122°38'2 3.4
2019-Oct-13 20:31N 37°49' W 122°37'1 2.4
2019-Oct-13 20:01N 37°49' W 122°36'2 4.2
2019-Oct-13 19:30N 37°51' W 122°38'2 4.3
2019-Oct-13 19:01N 37°52' W 122°39'1 1.4
2019-Oct-13 18:29N 37°52' W 122°40'2 4.1
2019-Oct-13 18:00N 37°51' W 122°39'2 4.0
2019-Oct-13 17:30N 37°49' W 122°37'2 3.2
2019-Oct-13 17:01N 37°49' W 122°35'1 1.6
2019-Oct-13 16:31N 37°50' W 122°35'2 4.0
2019-Oct-13 16:01N 37°48' W 122°36'2 4.2
2019-Oct-13 15:31N 37°47' W 122°38'2 3.9
2019-Oct-13 15:01N 37°46' W 122°40'2 4.8
2019-Oct-13 14:31N 37°44' W 122°38'0 0.0
2019-Oct-13 14:01N 37°44' W 122°38'0 0.1
2019-Oct-13 13:30N 37°44' W 122°38'0 0.0
2019-Oct-13 13:00N 37°44' W 122°38'0 0.0
2019-Oct-13 12:30N 37°44' W 122°38'3 7.0
2019-Oct-13 12:00N 37°43' W 122°34'1 1.6
2019-Oct-13 11:31N 37°43' W 122°33'0 0.5
2019-Oct-13 11:00N 37°43' W 122°33'1 2.5
2019-Oct-13 10:28N 37°43' W 122°35'1 2.1
2019-Oct-13 10:00N 37°43' W 122°36'1 2.3
2019-Oct-13 09:30N 37°43' W 122°38'2 4.4
2019-Oct-13 09:00N 37°42' W 122°41'0 0.1
2019-Oct-13 08:30N 37°42' W 122°41'0 0.0
2019-Oct-13 08:01N 37°42' W 122°41'1 2.6
2019-Oct-13 07:29N 37°42' W 122°42'2 3.2
2019-Oct-13 07:00N 37°42' W 122°40'2 4.1
2019-Oct-13 06:30N 37°43' W 122°38'2 4.0
2019-Oct-13 06:01N 37°43' W 122°35'2 3.1
2019-Oct-13 05:31N 37°44' W 122°35'2 3.7
2019-Oct-13 05:01N 37°44' W 122°37'2 4.1
2019-Oct-13 04:29N 37°44' W 122°40'2 4.0
2019-Oct-13 04:01N 37°44' W 122°42'2 3.9
2019-Oct-13 03:31N 37°46' W 122°41'2 3.8
2019-Oct-13 03:00N 37°47' W 122°39'2 3.6
2019-Oct-13 02:31N 37°49' W 122°37'2 3.8
2019-Oct-13 02:00N 37°50' W 122°39'2 3.7
2019-Oct-13 01:28N 37°52' W 122°40'2 4.2
2019-Oct-13 01:01N 37°53' W 122°38'2 3.4
2019-Oct-13 00:30N 37°52' W 122°40'1 2.8
2019-Oct-13 00:00N 37°51' W 122°40'2 3.9
2019-Oct-12 23:31N 37°52' W 122°38'1 1.7
2019-Oct-12 23:00N 37°53' W 122°38'1 2.8
2019-Oct-12 22:30N 37°53' W 122°40'2 3.3
2019-Oct-12 22:01N 37°51' W 122°40'1 3.0
2019-Oct-12 21:31N 37°51' W 122°38'2 3.7
2019-Oct-12 20:59N 37°52' W 122°36'2 3.9
2019-Oct-12 20:31N 37°51' W 122°38'2 4.2
2019-Oct-12 20:00N 37°50' W 122°40'1 1.4
2019-Oct-12 19:31N 37°49' W 122°40'0 0.3
2019-Oct-12 19:00N 37°49' W 122°40'1 2.8
2019-Oct-12 18:31N 37°48' W 122°39'0 0.2
2019-Oct-12 18:01N 37°48' W 122°39'2 3.4
2019-Oct-12 17:31N 37°47' W 122°40'0 0.1
2019-Oct-12 17:00N 37°47' W 122°40'0 0.0
2019-Oct-12 16:30N 37°47' W 122°40'0 0.0
2019-Oct-12 16:01N 37°47' W 122°40'2 4.0
2019-Oct-12 15:31N 37°47' W 122°43'1 2.5
2019-Oct-12 15:00N 37°46' W 122°42'2 4.2
2019-Oct-12 14:30N 37°45' W 122°40'1 2.2
2019-Oct-12 14:01N 37°46' W 122°40'2 3.9
2019-Oct-12 13:31N 37°47' W 122°41'1 2.6
2019-Oct-12 13:01N 37°48' W 122°43'2 3.9
2019-Oct-12 12:31N 37°46' W 122°41'2 3.1
2019-Oct-12 12:01N 37°46' W 122°39'1 2.9
2019-Oct-12 11:31N 37°47' W 122°39'2 4.0
2019-Oct-12 11:00N 37°48' W 122°41'1 1.8
2019-Oct-12 10:30N 37°49' W 122°42'2 4.1
2019-Oct-12 10:00N 37°47' W 122°40'2 4.2
2019-Oct-12 09:30N 37°46' W 122°38'1 1.5
2019-Oct-12 09:01N 37°46' W 122°38'1 3.0
2019-Oct-12 08:31N 37°48' W 122°38'2 4.0
2019-Oct-12 08:00N 37°49' W 122°40'1 2.4
2019-Oct-12 07:30N 37°50' W 122°41'2 4.2
2019-Oct-12 07:01N 37°48' W 122°39'2 4.1
2019-Oct-12 06:31N 37°47' W 122°38'2 3.5
2019-Oct-12 06:01N 37°48' W 122°38'2 3.9
2019-Oct-12 05:30N 37°50' W 122°40'2 4.1
2019-Oct-12 05:01N 37°48' W 122°42'2 3.8
2019-Oct-12 04:30N 37°47' W 122°43'2 3.8
2019-Oct-12 04:00N 37°48' W 122°41'2 3.7
2019-Oct-12 03:31N 37°49' W 122°39'1 1.2
2019-Oct-12 03:01N 37°49' W 122°39'2 4.1
2019-Oct-12 02:31N 37°48' W 122°41'2 3.5
2019-Oct-12 02:01N 37°46' W 122°42'1 2.7
2019-Oct-12 01:30N 37°47' W 122°41'2 4.0
2019-Oct-12 01:00N 37°48' W 122°39'2 3.8
2019-Oct-12 00:30N 37°49' W 122°37'1 2.5
2019-Oct-12 00:00N 37°51' W 122°37'2 4.0
2019-Oct-11 23:31N 37°52' W 122°39'1 2.4
2019-Oct-11 22:56N 37°54' W 122°39'1 2.9
2019-Oct-11 22:31N 37°53' W 122°38'2 3.6
2019-Oct-11 22:01N 37°51' W 122°37'2 3.8
2019-Oct-11 21:31N 37°50' W 122°35'1 1.9
2019-Oct-11 21:01N 37°49' W 122°34'3 7.0
2019-Oct-11 20:31N 37°49' W 122°30'5 9.3
2019-Oct-11 20:01N 37°50' W 122°24'5 9.9
2019-Oct-11 19:30N 37°48' W 122°19'1 2.1
2019-Oct-11 19:00N 37°47' W 122°17'0 0.0
2019-Oct-11 18:31N 37°47' W 122°17'0 0.0
2019-Oct-11 18:01N 37°47' W 122°17'0 0.0
2019-Oct-11 17:30N 37°47' W 122°17'0 0.0
2019-Oct-11 17:01N 37°47' W 122°17'0 0.0
2019-Oct-11 16:31N 37°47' W 122°17'0 0.0
2019-Oct-11 16:01N 37°47' W 122°17'0 0.1
2019-Oct-11 15:31N 37°47' W 122°17'0 0.1
2019-Oct-11 15:00N 37°47' W 122°17'0 0.0
2019-Oct-11 14:30N 37°47' W 122°17'0 0.0
2019-Oct-11 14:00N 37°47' W 122°17'0 0.1
2019-Oct-11 13:29N 37°47' W 122°17'0 0.1
2019-Oct-11 12:59N 37°47' W 122°17'0 0.0
2019-Oct-11 12:29N 37°47' W 122°17'0 0.0
2019-Oct-11 11:59N 37°47' W 122°17'0 0.0
2019-Oct-11 11:29N 37°47' W 122°17'0 0.0
2019-Oct-11 10:59N 37°47' W 122°17'0 0.0
2019-Oct-11 10:29N 37°47' W 122°17'0 0.0
2019-Oct-11 09:59N 37°47' W 122°17'0 0.0
2019-Oct-11 09:29N 37°47' W 122°17'0 0.0
2019-Oct-11 08:59N 37°47' W 122°17'0 0.0
2019-Oct-11 08:29N 37°47' W 122°17'0 0.0
2019-Oct-11 07:59N 37°47' W 122°17'0 0.0
2019-Oct-11 07:29N 37°47' W 122°17'0 0.0
2019-Oct-11 06:59N 37°47' W 122°17'0 0.0
2019-Oct-11 06:29N 37°47' W 122°17'0 0.0
2019-Oct-11 05:59N 37°47' W 122°17'0 0.0
2019-Oct-11 05:29N 37°47' W 122°17'0 0.0
2019-Oct-11 04:58N 37°47' W 122°17'0 0.0
2019-Oct-11 04:28N 37°47' W 122°17'0 0.0
2019-Oct-11 03:58N 37°47' W 122°17'0 0.0
2019-Oct-11 03:28N 37°47' W 122°17'0 0.0
2019-Oct-11 02:58N 37°47' W 122°17'0 0.0
2019-Oct-11 02:28N 37°47' W 122°17'0 0.0
2019-Oct-11 01:58N 37°47' W 122°17'0 0.0
2019-Oct-11 01:28N 37°47' W 122°17'0 0.0
2019-Oct-11 00:58N 37°47' W 122°17'0 0.0
2019-Oct-11 00:28N 37°47' W 122°17'0 0.1
2019-Oct-10 23:58N 37°47' W 122°17'0 0.1
2019-Oct-10 23:28N 37°47' W 122°17'0 0.0
2019-Oct-10 22:58N 37°47' W 122°17'0 0.0
2019-Oct-10 22:28N 37°47' W 122°17'0 0.0
2019-Oct-10 21:58N 37°47' W 122°17'0 0.0
2019-Oct-10 21:28N 37°47' W 122°17'0 0.0
2019-Oct-10 20:58N 37°47' W 122°17'0 0.0
2019-Oct-10 20:28N 37°47' W 122°17'0 0.0
2019-Oct-10 19:58N 37°47' W 122°17'0 0.0
2019-Oct-10 19:28N 37°47' W 122°17'0 0.0
2019-Oct-10 18:58N 37°47' W 122°17'0 0.0
2019-Oct-10 18:28N 37°47' W 122°17'0 0.0
2019-Oct-10 17:58N 37°47' W 122°17'0 0.0
2019-Oct-10 17:28N 37°47' W 122°17'0 0.0
2019-Oct-10 16:58N 37°47' W 122°17'0 0.0
2019-Oct-10 16:30N 37°47' W 122°17'0 0.0
2019-Oct-10 16:00N 37°47' W 122°17'0 0.0
2019-Oct-10 15:30N 37°47' W 122°17'0 0.0
2019-Oct-10 15:00N 37°47' W 122°17'0 0.0
2019-Oct-10 14:30N 37°47' W 122°17'0 0.0
2019-Oct-10 14:00N 37°47' W 122°17'0 0.0
2019-Oct-10 13:30N 37°47' W 122°17'0 0.0
2019-Oct-10 13:00N 37°47' W 122°17'0 0.0
2019-Oct-10 12:30N 37°47' W 122°17'0 0.0
2019-Oct-10 12:00N 37°47' W 122°17'0 0.0
2019-Oct-10 11:30N 37°47' W 122°17'0 0.0
2019-Oct-10 11:00N 37°47' W 122°17'0 0.0
2019-Oct-10 10:30N 37°47' W 122°17'0 0.0
2019-Oct-10 10:00N 37°47' W 122°17'0 0.0
2019-Oct-10 09:30N 37°47' W 122°17'0 0.0
2019-Oct-10 09:00N 37°47' W 122°17'0 0.0
2019-Oct-10 08:30N 37°47' W 122°17'0 0.0
2019-Oct-10 08:00N 37°47' W 122°17'0 0.0
2019-Oct-10 07:30N 37°47' W 122°17'0 0.0
2019-Oct-10 07:00N 37°47' W 122°17'0 0.0
2019-Oct-10 06:30N 37°47' W 122°17'0 0.0
2019-Oct-10 06:00N 37°47' W 122°17'0 0.1
2019-Oct-10 05:30N 37°47' W 122°17'0 0.1
2019-Oct-10 05:00N 37°47' W 122°17'0 0.0
2019-Oct-10 04:30N 37°47' W 122°17'0 0.0
2019-Oct-10 04:00N 37°47' W 122°17'0 0.0
2019-Oct-10 03:30N 37°47' W 122°17'0 0.0
2019-Oct-10 03:00N 37°47' W 122°17'0 0.0
2019-Oct-10 02:30N 37°47' W 122°17'0 0.0
2019-Oct-10 02:00N 37°47' W 122°17'0 0.0
2019-Oct-10 01:30N 37°47' W 122°17'0 0.0
2019-Oct-10 01:00N 37°47' W 122°17'0 0.0
2019-Oct-10 00:30N 37°47' W 122°17'0 0.0
2019-Oct-10 00:00N 37°47' W 122°17'0 0.0
2019-Oct-09 23:31N 37°47' W 122°17'0 0.0
2019-Oct-09 23:00N 37°47' W 122°17'0 0.0
2019-Oct-09 22:30N 37°47' W 122°17'0 0.0
2019-Oct-09 22:00N 37°47' W 122°17'0 0.0
2019-Oct-09 21:30N 37°47' W 122°17'0 0.0
2019-Oct-09 20:59N 37°47' W 122°17'0 0.0
2019-Oct-09 20:17N 37°47' W 122°17'0 0.0
2019-Oct-09 20:00N 37°47' W 122°17'0 0.0
2019-Oct-09 19:30N 37°47' W 122°17'0 0.0
2019-Oct-09 19:00N 37°47' W 122°17'2 3.2
2019-Oct-09 18:30N 37°48' W 122°19'4 8.8
2019-Oct-09 18:00N 37°49' W 122°25'510.3
2019-Oct-09 17:30N 37°48' W 122°31'510.8
2019-Oct-09 17:00N 37°46' W 122°38'510.1
2019-Oct-09 16:30N 37°47' W 122°44'510.0
2019-Oct-09 16:00N 37°48' W 122°50'510.0
2019-Oct-09 15:30N 37°50' W 122°56'510.3
2019-Oct-09 15:00N 37°53' W 123°01'510.1
2019-Oct-09 14:30N 37°55' W 123°07'510.1
2019-Oct-09 14:00N 37°58' W 123°12'510.5
2019-Oct-09 13:30N 38°02' W 123°16'510.7
2019-Oct-09 13:00N 38°06' W 123°21'510.7
2019-Oct-09 12:30N 38°11' W 123°24'510.7
2019-Oct-09 12:00N 38°16' W 123°27'510.6
2019-Oct-09 11:30N 38°21' W 123°30'510.2
2019-Oct-09 11:00N 38°25' W 123°33'510.0
2019-Oct-09 10:30N 38°30' W 123°35'6 9.8
2019-Oct-09 09:52N 38°35' W 123°39'9 9.9
2019-Oct-09 09:00N 38°43' W 123°44'  

Dump ship's entire track history